Time;durP1;ratioP1;P1;durP2;ratioP2;P2;SDS_P1;SDS_P2;PMS_P1;PMS_P2;Temp;Humidity;BMP_temperature;BMP_pressure;BME280_temperature;BME280_humidity;BME280_pressure;Samples;Min_cycle;Max_cycle;Signal;HPM_P1;HPM_P2
2022/07/26 00:00:09;;;;;;;3.90;1.15;;;25.00;48.80;;;;;;7369608;19;20022;-75
2022/07/26 00:02:37;;;;;;;;;;;24.90;48.90;;;;;;7371568;19;20406;-76
2022/07/26 00:05:07;;;;;;;3.60;1.15;;;25.00;49.00;;;;;;7370327;19;19922;-76
2022/07/26 00:07:36;;;;;;;8.50;1.17;;;24.90;48.90;;;;;;7370868;19;20085;-75
2022/07/26 00:10:06;;;;;;;5.85;1.20;;;24.90;48.90;;;;;;7370261;19;20021;-75
2022/07/26 00:12:37;;;;;;;3.13;1.10;;;24.90;49.00;;;;;;7392681;19;20710;-75
2022/07/26 00:15:08;;;;;;;3.50;1.27;;;25.00;49.00;;;;;;7369691;19;20070;-76
2022/07/26 00:17:37;;;;;;;3.00;1.27;;;24.90;48.90;;;;;;7369216;19;20094;-75
2022/07/26 00:20:07;;;;;;;2.97;1.42;;;24.90;49.00;;;;;;7368688;19;20026;-75
2022/07/26 00:22:38;;;;;;;4.00;1.20;;;24.80;49.20;;;;;;7370205;19;20014;-75
2022/07/26 00:25:09;;;;;;;5.93;1.30;;;24.80;49.20;;;;;;7371000;19;20021;-76
2022/07/26 00:27:41;;;;;;;2.90;1.50;;;24.80;49.40;;;;;;7390945;19;20118;-76
2022/07/26 00:30:13;;;;;;;3.78;1.38;;;24.70;49.40;;;;;;7368476;19;20011;-76
2022/07/26 00:32:42;;;;;;;3.92;1.10;;;24.70;49.50;;;;;;7368994;19;20353;-76
2022/07/26 00:35:11;;;;;;;2.67;1.20;;;24.70;49.50;;;;;;7369028;19;20014;-75
2022/07/26 00:37:41;;;;;;;1.83;1.10;;;24.70;49.50;;;;;;7369809;19;20029;-76
2022/07/26 00:40:11;;;;;;;5.70;1.50;;;24.70;50.10;;;;;;7368839;19;20077;-76
2022/07/26 00:42:43;;;;;;;3.35;1.10;;;24.70;49.50;;;;;;7389262;19;20017;-76
2022/07/26 00:45:13;;;;;;;2.72;1.10;;;24.70;49.70;;;;;;7368110;19;20095;-76
2022/07/26 00:47:42;;;;;;;2.63;1.25;;;24.70;49.50;;;;;;7368196;19;20022;-75
2022/07/26 00:50:14;;;;;;;3.15;1.20;;;24.60;49.50;;;;;;7368011;19;20090;-75
2022/07/26 00:52:44;;;;;;;6.75;1.65;;;24.60;49.80;;;;;;7369396;19;20018;-75
2022/07/26 00:55:13;;;;;;;8.13;1.45;;;24.50;49.90;;;;;;7366676;19;20082;-75
2022/07/26 00:57:45;;;;;;;3.38;1.00;;;24.50;50.00;;;;;;7383275;19;20082;-77
2022/07/26 01:00:18;;;;;;;6.93;1.23;;;24.40;50.20;;;;;;7387829;19;20187;-76
2022/07/26 01:02:48;;;;;;;2.00;1.10;;;24.30;50.30;;;;;;7370533;19;20090;-76
2022/07/26 01:05:17;;;;;;;4.07;1.30;;;24.30;50.50;;;;;;7367802;19;20022;-76
2022/07/26 01:07:46;;;;;;;3.58;1.38;;;24.30;50.60;;;;;;7368746;19;20068;-76
2022/07/26 01:10:15;;;;;;;4.65;1.50;;;24.30;50.50;;;;;;7367007;19;20044;-76
2022/07/26 01:12:47;;;;;;;4.60;1.20;;;24.30;50.70;;;;;;7366827;19;20029;-76
2022/07/26 01:15:17;;;;;;;2.83;1.30;;;24.20;50.70;;;;;;7387383;19;20457;-75
2022/07/26 01:17:46;;;;;;;5.20;1.27;;;24.20;50.60;;;;;;7367025;19;20074;-75
2022/07/26 01:20:18;;;;;;;9.18;1.30;;;24.20;50.60;;;;;;7372893;19;20402;-75
2022/07/26 01:22:49;;;;;;;5.25;1.40;;;24.20;50.70;;;;;;7375928;19;20022;-76
2022/07/26 01:25:17;;;;;;;;;;;24.20;50.60;;;;;;7377021;19;20086;-75
2022/07/26 01:27:46;;;;;;;2.03;1.30;;;24.30;50.60;;;;;;7376223;19;19926;-75
2022/07/26 01:30:16;;;;;;;4.55;1.25;;;24.30;50.50;;;;;;7397711;19;20032;-76
2022/07/26 01:32:45;;;;;;;3.40;1.50;;;24.30;50.40;;;;;;7374115;19;20018;-76
2022/07/26 01:35:13;;;;;;;4.78;1.20;;;24.20;50.40;;;;;;7375756;19;20102;-76
2022/07/26 01:37:42;;;;;;;5.38;1.50;;;24.20;50.30;;;;;;7373815;19;20021;-75
2022/07/26 01:40:15;;;;;;;7.47;2.50;;;24.30;50.40;;;;;;7374037;19;20073;-76
2022/07/26 01:42:44;;;;;;;6.07;2.35;;;24.20;50.50;;;;;;7374266;19;20053;-76
2022/07/26 01:45:14;;;;;;;4.05;1.77;;;24.20;50.60;;;;;;7396009;19;20561;-75
2022/07/26 01:47:43;;;;;;;4.93;1.30;;;24.20;50.80;;;;;;7374109;19;20134;-75
2022/07/26 01:50:12;;;;;;;3.15;1.20;;;24.20;50.80;;;;;;7374451;19;20014;-75
2022/07/26 01:52:41;;;;;;;3.10;1.38;;;24.10;50.70;;;;;;7373857;19;20106;-76
2022/07/26 01:55:11;;;;;;;2.30;1.40;;;24.10;50.90;;;;;;7372509;19;20441;-76
2022/07/26 01:57:42;;;;;;;3.53;1.40;;;24.10;50.90;;;;;;7394569;19;20015;-75
2022/07/26 02:00:11;;;;;;;;;;;24.00;51.00;;;;;;7375680;19;20022;-75
2022/07/26 02:02:40;;;;;;;2.05;1.23;;;24.00;50.90;;;;;;7373730;19;19917;-76
2022/07/26 02:05:10;;;;;;;4.55;1.58;;;24.00;50.70;;;;;;7375989;19;20065;-76
2022/07/26 02:07:41;;;;;;;3.90;1.45;;;23.90;50.90;;;;;;7372296;19;20019;-75
2022/07/26 02:10:12;;;;;;;2.85;1.30;;;23.90;51.10;;;;;;7372499;19;20031;-76
2022/07/26 02:12:43;;;;;;;4.03;1.50;;;23.90;51.10;;;;;;7397176;19;20031;-75
2022/07/26 02:15:12;;;;;;;;;;;23.90;51.10;;;;;;7373082;19;20014;-75
2022/07/26 02:17:41;;;;;;;2.65;1.23;;;24.00;51.10;;;;;;7374075;19;19974;-76
2022/07/26 02:20:11;;;;;;;3.75;1.05;;;24.00;51.00;;;;;;7373610;19;20125;-76
2022/07/26 02:22:40;;;;;;;5.97;1.48;;;24.00;51.00;;;;;;7373029;19;20011;-75
2022/07/26 02:25:09;;;;;;;2.88;1.30;;;24.00;50.90;;;;;;7372799;19;20014;-76
2022/07/26 02:27:38;;;;;;;4.13;1.30;;;24.00;50.90;;;;;;7393065;19;20014;-75
2022/07/26 02:30:10;;;;;;;4.40;1.40;;;24.00;51.00;;;;;;7372779;19;20090;-75
2022/07/26 02:32:41;;;;;;;4.68;1.50;;;23.90;51.10;;;;;;7373307;19;20010;-75
2022/07/26 02:35:10;;;;;;;4.72;1.73;;;23.90;51.00;;;;;;7372777;19;20030;-75
2022/07/26 02:37:40;;;;;;;4.85;1.45;;;23.90;51.30;;;;;;7372857;19;20086;-75
2022/07/26 02:40:10;;;;;;;6.13;1.50;;;23.80;51.40;;;;;;7373303;19;20021;-75
2022/07/26 02:42:39;;;;;;;3.33;1.60;;;23.90;51.50;;;;;;7394056;19;20451;-75
2022/07/26 02:45:11;;;;;;;3.85;1.42;;;23.80;51.50;;;;;;7373385;19;20104;-76
2022/07/26 02:47:47;;;;;;;2.53;1.33;;;23.80;51.60;;;;;;7372025;19;20037;-76
2022/07/26 02:50:18;;;;;;;3.22;1.65;;;23.90;51.80;;;;;;7372987;19;20082;-76
2022/07/26 02:52:48;;;;;;;2.78;1.40;;;23.90;51.50;;;;;;7371258;19;20018;-76
2022/07/26 02:55:18;;;;;;;4.93;1.55;;;23.90;51.40;;;;;;7371271;19;20014;-76
2022/07/26 02:57:47;;;;;;;5.15;1.50;;;23.90;51.50;;;;;;7373484;19;20022;-76
2022/07/26 03:00:21;;;;;;;5.47;1.50;;;23.90;51.50;;;;;;7393132;19;20484;-76
2022/07/26 03:02:50;;;;;;;2.17;1.27;;;23.90;51.70;;;;;;7371463;19;20332;-76
2022/07/26 03:05:20;;;;;;;5.28;1.60;;;23.90;51.60;;;;;;7373837;19;20404;-76
2022/07/26 03:07:49;;;;;;;3.53;1.50;;;23.90;51.70;;;;;;7371070;19;20101;-76
2022/07/26 03:10:18;;;;;;;3.63;1.40;;;23.90;51.60;;;;;;7371237;19;20346;-76
2022/07/26 03:12:47;;;;;;;3.97;1.40;;;23.90;51.90;;;;;;7372306;19;20023;-77
2022/07/26 03:15:18;;;;;;;4.15;1.30;;;23.90;52.00;;;;;;7394156;19;20089;-76
2022/07/26 03:17:46;;;;;;;;;;;23.90;52.00;;;;;;7369685;19;20050;-76
2022/07/26 03:20:15;;;;;;;2.63;1.55;;;24.00;52.10;;;;;;7372800;19;19919;-76
2022/07/26 03:22:44;;;;;;;5.38;1.25;;;24.00;52.10;;;;;;7371382;19;20018;-76
2022/07/26 03:25:13;;;;;;;6.07;1.50;;;24.00;52.20;;;;;;7371496;19;20085;-76
2022/07/26 03:27:42;;;;;;;5.38;1.52;;;24.00;52.40;;;;;;7386375;19;20018;-77
2022/07/26 03:30:13;;;;;;;3.78;1.30;;;24.00;52.50;;;;;;7393259;19;20018;-76
2022/07/26 03:32:44;;;;;;;4.82;1.38;;;24.00;52.50;;;;;;7369983;19;20426;-76
2022/07/26 03:35:13;;;;;;;;;;;24.00;52.60;;;;;;7371749;19;20038;-76
2022/07/26 03:37:41;;;;;;;4.53;1.40;;;24.10;52.70;;;;;;7372041;19;19925;-76
2022/07/26 03:40:11;;;;;;;3.03;1.33;;;24.10;52.60;;;;;;7370339;19;20073;-76
2022/07/26 03:42:40;;;;;;;5.80;1.63;;;24.10;52.60;;;;;;7388926;19;20022;-76
2022/07/26 03:45:10;;;;;;;10.07;1.80;;;23.90;53.00;;;;;;7369834;19;20020;-76
2022/07/26 03:47:39;;;;;;;5.47;1.33;;;23.80;53.20;;;;;;7370117;19;20078;-76
2022/07/26 03:50:12;;;;;;;4.22;1.33;;;23.70;53.50;;;;;;7370855;19;20337;-76
2022/07/26 03:52:41;;;;;;;4.68;1.38;;;23.60;53.80;;;;;;7370642;19;20093;-76
2022/07/26 03:57:52;;;;;;;15.05;2.22;;;23.60;53.90;;;;;;7372628;19;20022;-76
2022/07/26 04:00:21;;;;;;;7.40;1.88;;;23.60;54.10;;;;;;7391829;19;20098;-76
2022/07/26 04:02:50;;;;;;;4.80;1.30;;;23.50;54.10;;;;;;7371760;19;20015;-76
2022/07/26 04:05:21;;;;;;;3.67;1.58;;;23.50;54.70;;;;;;7369897;19;20018;-76
2022/07/26 04:07:50;;;;;;;4.35;1.17;;;23.50;54.40;;;;;;7370471;19;20125;-76
2022/07/26 04:10:19;;;;;;;5.43;1.52;;;23.50;54.30;;;;;;7369884;19;20045;-76
2022/07/26 04:12:47;;;;;;;8.82;1.52;;;23.60;54.30;;;;;;7370441;19;20019;-76
2022/07/26 04:15:17;;;;;;;4.47;1.65;;;23.50;54.40;;;;;;7392060;19;20426;-76
2022/07/26 04:17:47;;;;;;;5.47;1.55;;;23.60;54.50;;;;;;7369310;19;20018;-76
2022/07/26 04:20:16;;;;;;;6.22;2.03;;;23.60;54.50;;;;;;7369179;19;20022;-76
2022/07/26 04:22:47;;;;;;;6.30;1.77;;;23.60;54.50;;;;;;7371273;19;20430;-76
2022/07/26 04:25:16;;;;;;;;;;;23.60;54.50;;;;;;7371339;19;20429;-76
2022/07/26 04:27:48;;;;;;;8.07;1.65;;;23.70;54.60;;;;;;7368816;19;20217;-77
2022/07/26 04:30:17;;;;;;;5.80;1.85;;;23.70;54.60;;;;;;7390851;19;20461;-76
2022/07/26 04:32:46;;;;;;;4.70;1.77;;;23.70;54.60;;;;;;7368828;19;20018;-76
2022/07/26 04:35:16;;;;;;;10.60;2.95;;;23.80;54.60;;;;;;7369993;19;20035;-76
2022/07/26 04:37:48;;;;;;;5.65;1.40;;;23.70;54.60;;;;;;7369451;19;20025;-76
2022/07/26 04:40:19;;;;;;;5.45;1.48;;;23.70;54.70;;;;;;7368503;19;20106;-76
2022/07/26 04:42:48;;;;;;;;;;;23.70;54.70;;;;;;7368763;19;20025;-76
2022/07/26 04:45:16;;;;;;;8.40;1.85;;;23.80;54.80;;;;;;7390792;19;20296;-76
2022/07/26 04:47:46;;;;;;;10.40;2.00;;;23.90;54.80;;;;;;7367904;19;20129;-76
2022/07/26 04:50:15;;;;;;;6.45;1.98;;;23.90;54.80;;;;;;7368400;19;20018;-76
2022/07/26 04:52:46;;;;;;;5.05;1.60;;;23.90;54.70;;;;;;7368024;19;20457;-76
2022/07/26 04:55:15;;;;;;;9.60;2.05;;;24.00;54.70;;;;;;7375538;19;20029;-76
2022/07/26 04:57:44;;;;;;;6.50;1.70;;;23.90;54.70;;;;;;7376924;19;20167;-76
2022/07/26 05:00:15;;;;;;;9.73;2.10;;;23.90;54.90;;;;;;7398162;19;20497;-76
2022/07/26 05:02:44;;;;;;;7.82;2.10;;;23.70;55.10;;;;;;7375100;19;20429;-76
2022/07/26 05:05:13;;;;;;;10.65;1.85;;;23.70;55.30;;;;;;7377615;19;20081;-76
2022/07/26 05:07:43;;;;;;;11.05;2.10;;;23.70;55.50;;;;;;7376582;19;20020;-76
2022/07/26 05:10:14;;;;;;;10.55;2.55;;;23.70;55.50;;;;;;7375301;19;20023;-76
2022/07/26 05:12:43;;;;;;;13.07;2.28;;;23.50;55.60;;;;;;7376656;19;20019;-77
2022/07/26 05:15:12;;;;;;;8.63;2.40;;;23.40;55.90;;;;;;7397628;19;20337;-76
2022/07/26 05:17:42;;;;;;;10.15;2.08;;;23.40;56.10;;;;;;7374895;19;20010;-76
2022/07/26 05:20:13;;;;;;;9.43;2.00;;;23.40;56.20;;;;;;7375969;19;20019;-76
2022/07/26 05:22:42;;;;;;;11.15;2.03;;;23.30;56.50;;;;;;7375589;19;20448;-76
2022/07/26 05:25:14;;;;;;;8.65;2.20;;;23.30;56.50;;;;;;7375896;19;20020;-76
2022/07/26 05:27:42;;;;;;;18.00;2.28;;;23.40;56.50;;;;;;7382085;19;20326;-76
2022/07/26 05:30:12;;;;;;;8.73;2.00;;;23.50;56.30;;;;;;7397704;19;20015;-76
2022/07/26 05:32:41;;;;;;;7.25;1.95;;;23.40;56.30;;;;;;7375046;19;20090;-76
2022/07/26 05:35:10;;;;;;;6.88;2.00;;;23.20;56.50;;;;;;7374565;19;20018;-76
2022/07/26 05:37:39;;;;;;;11.20;2.13;;;23.10;57.10;;;;;;7374073;19;20053;-76
2022/07/26 05:40:09;;;;;;;10.45;2.28;;;23.20;57.00;;;;;;7373287;19;20014;-76
2022/07/26 05:42:41;;;;;;;9.30;2.20;;;23.30;56.90;;;;;;7397795;19;20011;-76
2022/07/26 05:45:12;;;;;;;;;;;23.20;57.00;;;;;;7375688;19;20579;-76
2022/07/26 05:47:41;;;;;;;12.65;2.50;;;23.30;56.90;;;;;;7373798;19;19930;-76
2022/07/26 05:50:11;;;;;;;14.60;2.05;;;23.30;57.00;;;;;;7375176;19;20025;-76
2022/07/26 05:52:40;;;;;;;8.90;2.15;;;23.30;57.10;;;;;;7375187;19;20445;-76
2022/07/26 05:55:10;;;;;;;11.20;2.10;;;23.20;57.20;;;;;;7374471;19;20015;-76
2022/07/26 05:57:46;;;;;;;11.07;2.30;;;23.20;57.20;;;;;;7397546;19;20015;-76
2022/07/26 06:00:16;;;;;;;4.47;1.75;;;23.30;57.20;;;;;;7374994;19;20090;-76
2022/07/26 06:02:44;;;;;;;12.10;2.17;;;23.40;57.10;;;;;;7374090;19;20014;-76
2022/07/26 06:05:14;;;;;;;12.40;2.20;;;23.50;56.90;;;;;;7371931;19;20121;-75
2022/07/26 06:07:43;;;;;;;8.32;2.28;;;23.40;56.80;;;;;;7374181;19;20399;-76
2022/07/26 06:10:19;;;;;;;6.15;1.95;;;23.40;56.90;;;;;;7371100;19;20073;-76
2022/07/26 06:12:51;;;;;;;10.23;2.08;;;23.50;56.90;;;;;;7376130;19;20037;-76
2022/07/26 06:15:19;;;;;;;;;;;23.50;56.90;;;;;;7394100;19;20453;-76
2022/07/26 06:17:48;;;;;;;11.25;2.22;;;23.50;56.90;;;;;;7373394;19;20318;-76
2022/07/26 06:20:16;;;;;;;9.07;2.67;;;23.50;56.80;;;;;;7372996;19;20134;-76
2022/07/26 06:22:45;;;;;;;6.22;2.05;;;23.50;56.80;;;;;;7371028;19;20022;-78
2022/07/26 06:25:14;;;;;;;17.65;2.53;;;23.50;56.70;;;;;;7373653;19;20077;-77
2022/07/26 06:27:42;;;;;;;5.75;2.10;;;23.50;56.60;;;;;;7378755;19;20029;-78
2022/07/26 06:30:14;;;;;;;9.13;2.33;;;23.50;56.60;;;;;;7393318;19;20019;-79
2022/07/26 06:32:44;;;;;;;10.10;1.95;;;23.20;57.00;;;;;;7371215;19;21882;-77
2022/07/26 06:35:13;;;;;;;8.75;2.08;;;23.30;57.10;;;;;;7372820;19;20033;-79
2022/07/26 06:37:43;;;;;;;7.78;2.35;;;23.30;57.20;;;;;;7374634;19;20086;-79
2022/07/26 06:40:13;;;;;;;12.23;2.75;;;23.40;56.90;;;;;;7371845;19;20382;-79
2022/07/26 06:42:41;;;;;;;12.90;2.55;;;23.40;57.00;;;;;;7389470;19;20021;-79
2022/07/26 06:45:14;;;;;;;12.02;2.17;;;23.10;57.30;;;;;;7391451;19;20026;-79
2022/07/26 06:47:42;;;;;;;13.93;2.40;;;23.10;57.50;;;;;;7372882;19;20317;-79
2022/07/26 06:50:12;;;;;;;11.07;2.42;;;23.20;57.40;;;;;;7372385;19;20594;-79
2022/07/26 06:52:40;;;;;;;7.50;1.90;;;23.30;57.40;;;;;;7367540;19;20102;-79
2022/07/26 06:55:11;;;;;;;11.90;2.40;;;23.30;57.10;;;;;;7373832;19;20026;-78
2022/07/26 06:57:41;;;;;;;6.95;2.10;;;23.50;57.10;;;;;;7392481;19;20024;-79
2022/07/26 07:00:14;;;;;;;9.82;1.92;;;23.60;56.60;;;;;;7372316;19;20014;-79
2022/07/26 07:02:43;;;;;;;7.95;2.28;;;23.60;56.70;;;;;;7372614;19;20090;-78
2022/07/26 07:05:12;;;;;;;7.45;1.77;;;23.70;56.70;;;;;;7373747;19;20015;-79
2022/07/26 07:07:41;;;;;;;11.23;2.20;;;23.80;56.40;;;;;;7372149;19;20018;-80
2022/07/26 07:10:14;;;;;;;9.40;2.00;;;23.60;56.50;;;;;;7370809;19;20103;-79
2022/07/26 07:12:43;;;;;;;6.75;1.70;;;23.70;56.20;;;;;;7378006;19;20044;-79
2022/07/26 07:15:15;;;;;;;7.47;1.98;;;23.70;56.30;;;;;;7394267;19;20022;-79
2022/07/26 07:17:44;;;;;;;6.30;1.80;;;23.80;56.30;;;;;;7369179;19;20125;-78
2022/07/26 07:20:13;;;;;;;10.73;2.40;;;23.70;56.30;;;;;;7369258;19;20102;-79
2022/07/26 07:22:42;;;;;;;9.07;2.10;;;23.60;56.50;;;;;;7370690;19;20018;-79
2022/07/26 07:25:11;;;;;;;7.05;1.80;;;23.60;56.60;;;;;;7373308;19;20455;-79
2022/07/26 07:27:40;;;;;;;16.08;2.47;;;23.40;56.90;;;;;;7392469;19;20713;-80
2022/07/26 07:30:10;;;;;;;11.48;2.28;;;23.30;56.80;;;;;;7370845;19;20105;-78
2022/07/26 07:32:41;;;;;;;8.13;2.13;;;23.40;56.80;;;;;;7372964;19;20584;-79
2022/07/26 07:35:10;;;;;;;10.50;2.70;;;23.50;56.80;;;;;;7371528;19;20082;-79
2022/07/26 07:37:39;;;;;;;7.35;2.03;;;23.60;56.60;;;;;;7370016;19;20077;-79
2022/07/26 07:40:13;;;;;;;8.80;1.90;;;23.60;56.50;;;;;;7371251;19;20082;-79
2022/07/26 07:42:42;;;;;;;9.27;2.40;;;23.70;56.50;;;;;;7387549;19;20445;-79
2022/07/26 07:45:11;;;;;;;11.32;2.17;;;23.90;56.50;;;;;;7392409;19;20580;-78
2022/07/26 07:47:43;;;;;;;6.80;2.08;;;23.90;56.00;;;;;;7371584;19;20106;-79
2022/07/26 07:50:12;;;;;;;5.38;1.80;;;24.00;55.70;;;;;;7371392;19;20048;-79
2022/07/26 07:52:41;;;;;;;7.35;2.33;;;23.90;56.10;;;;;;7373719;19;20077;-79
2022/07/26 07:55:11;;;;;;;10.73;2.88;;;24.00;55.90;;;;;;7371608;19;20054;-79
2022/07/26 07:57:39;;;;;;;7.38;2.47;;;24.10;55.50;;;;;;7389720;19;20030;-78
2022/07/26 08:00:11;;;;;;;9.82;2.80;;;24.00;55.60;;;;;;7371104;19;20382;-79
2022/07/26 08:02:42;;;;;;;8.80;2.17;;;24.00;55.60;;;;;;7371652;19;20014;-79
2022/07/26 08:05:11;;;;;;;;;;;23.90;56.30;;;;;;7371183;19;20022;-79
2022/07/26 08:07:40;;;;;;;11.05;2.25;;;23.80;55.90;;;;;;7371056;19;19929;-79
2022/07/26 08:10:10;;;;;;;9.32;1.83;;;23.70;55.80;;;;;;7370992;19;20019;-78
2022/07/26 08:12:39;;;;;;;11.27;2.25;;;23.80;56.00;;;;;;7391386;19;20106;-79
2022/07/26 08:15:09;;;;;;;13.73;2.80;;;23.90;55.90;;;;;;7368725;19;20035;-79
2022/07/26 08:17:38;;;;;;;7.97;1.85;;;23.70;55.70;;;;;;7367722;19;20018;-80
2022/07/26 08:20:11;;;;;;;9.18;2.20;;;23.70;56.00;;;;;;7364779;19;20734;-78
2022/07/26 08:22:39;;;;;;;11.05;2.22;;;23.60;56.10;;;;;;7362909;19;20007;-79
2022/07/26 08:25:09;;;;;;;12.93;2.17;;;23.70;56.20;;;;;;7366668;19;20056;-79
2022/07/26 08:27:38;;;;;;;12.07;2.28;;;23.70;56.00;;;;;;7391561;19;20035;-79
2022/07/26 08:30:08;;;;;;;12.50;2.17;;;23.60;56.10;;;;;;7369503;19;20025;-79
2022/07/26 08:32:37;;;;;;;6.72;2.00;;;23.50;56.30;;;;;;7370947;19;20047;-79
2022/07/26 08:35:10;;;;;;;11.18;2.00;;;23.50;56.50;;;;;;7371116;19;20094;-79
2022/07/26 08:37:39;;;;;;;7.18;1.63;;;23.50;56.60;;;;;;7368752;19;20022;-79
2022/07/26 08:40:09;;;;;;;6.72;1.95;;;23.80;56.30;;;;;;7368837;19;20100;-79
2022/07/26 08:42:38;;;;;;;12.10;2.43;;;23.90;56.00;;;;;;7392447;19;20097;-78
2022/07/26 08:45:08;;;;;;;8.95;1.50;;;23.80;56.00;;;;;;7368686;19;20426;-78
2022/07/26 08:47:36;;;;;;;8.27;2.13;;;23.80;55.80;;;;;;7368695;19;20014;-79
2022/07/26 08:50:06;;;;;;;5.95;1.92;;;23.90;55.90;;;;;;7371281;19;20094;-79
2022/07/26 08:52:40;;;;;;;9.98;1.90;;;24.00;55.60;;;;;;7369261;19;20086;-80
2022/07/26 08:55:10;;;;;;;8.88;2.10;;;24.00;55.60;;;;;;7370396;19;20021;-80
2022/07/26 08:57:39;;;;;;;11.80;2.30;;;24.00;55.50;;;;;;7392014;19;20090;-79
2022/07/26 09:00:19;;;;;;;5.75;2.22;;;24.00;55.40;;;;;;7370652;19;20019;-78
2022/07/26 09:02:49;;;;;;;8.38;1.80;;;23.90;55.60;;;;;;7368938;19;20330;-79
2022/07/26 09:05:20;;;;;;;11.73;2.33;;;23.80;55.60;;;;;;7367042;19;20029;-79
2022/07/26 09:07:51;;;;;;;4.88;1.60;;;23.70;55.50;;;;;;7368821;19;20022;-79
2022/07/26 09:10:24;;;;;;;;;;;23.90;55.60;;;;;;7370533;19;20215;-80
2022/07/26 09:12:56;;;;;;;9.20;1.80;;;24.00;55.60;;;;;;7370090;19;19929;-78
2022/07/26 09:15:27;;;;;;;8.52;1.80;;;24.10;55.30;;;;;;7390708;19;20055;-78
2022/07/26 09:17:57;;;;;;;;;;;24.10;55.30;;;;;;7366770;19;20022;-77
2022/07/26 09:20:27;;;;;;;8.68;2.13;;;24.20;55.10;;;;;;7367523;19;19940;-77
2022/07/26 09:23:04;;;;;;;8.40;1.80;;;24.30;55.00;;;;;;7368735;19;20090;-78
2022/07/26 09:25:34;;;;;;;14.15;2.78;;;24.30;54.70;;;;;;7367366;19;20102;-76
2022/07/26 09:28:04;;;;;;;6.20;1.60;;;24.20;54.70;;;;;;7368153;19;20091;-76
2022/07/26 09:30:34;;;;;;;7.60;1.80;;;24.20;54.70;;;;;;7389515;19;20785;-78
2022/07/26 09:33:05;;;;;;;8.35;2.45;;;24.20;54.70;;;;;;7368956;19;20114;-78
2022/07/26 09:35:36;;;;;;;;;;;24.20;54.60;;;;;;7369236;19;20089;-79
2022/07/26 09:38:15;;;;;;;8.77;2.00;;;24.30;54.30;;;;;;7368715;19;19971;-78
2022/07/26 09:40:44;;;;;;;6.18;2.05;;;24.40;54.10;;;;;;7372535;19;20027;-78
2022/07/26 09:43:15;;;;;;;6.93;2.38;;;24.50;53.40;;;;;;7374400;19;20394;-79
2022/07/26 09:45:47;;;;;;;;;;;24.30;53.40;;;;;;7373914;19;20027;-78
2022/07/26 09:48:28;;;;;;;6.88;2.03;;;24.60;53.20;;;;;;7398606;19;19918;-78
2022/07/26 09:50:57;;;;;;;3.53;1.50;;;24.40;52.70;;;;;;7375006;19;20022;-79
2022/07/26 09:53:41;;;;;;;5.25;1.70;;;24.30;52.20;;;;;;7374566;19;20119;-78
2022/07/26 09:56:10;;;;;;;6.13;1.60;;;24.40;51.90;;;;;;7376201;19;20019;-79
2022/07/26 09:58:40;;;;;;;4.93;1.58;;;24.40;51.50;;;;;;7377308;19;20022;-78
2022/07/26 10:01:09;;;;;;;5.95;1.50;;;24.50;51.70;;;;;;7372897;19;20802;-78
2022/07/26 10:03:38;;;;;;;7.00;1.60;;;24.30;51.30;;;;;;7396404;19;20094;-79
2022/07/26 10:06:07;;;;;;;5.63;1.30;;;24.20;52.00;;;;;;7374884;19;20122;-78
2022/07/26 10:08:38;;;;;;;7.22;1.50;;;24.00;50.30;;;;;;7372827;19;20014;-77
2022/07/26 10:11:10;;;;;;;5.95;1.25;;;23.90;51.10;;;;;;7372484;19;20641;-77
2022/07/26 10:13:38;;;;;;;;;;;23.80;51.50;;;;;;7374358;19;20086;-77
2022/07/26 10:16:08;;;;;;;5.18;1.20;;;24.10;51.40;;;;;;7372237;19;19919;-78
2022/07/26 10:18:48;;;;;;;5.03;1.10;;;24.00;50.90;;;;;;7395567;19;20020;-77
2022/07/26 10:21:22;;;;;;;3.25;1.08;;;24.30;50.80;;;;;;7374164;19;20042;-78
2022/07/26 10:23:55;;;;;;;9.60;1.38;;;24.40;49.90;;;;;;7373929;19;20355;-79
2022/07/26 10:26:44;;;;;;;2.75;0.82;;;24.70;50.10;;;;;;7374763;19;20331;-79
2022/07/26 10:29:27;;;;;;;2.83;1.00;;;24.90;48.80;;;;;;7371971;19;20021;-78
2022/07/26 10:32:28;;;;;;;3.55;0.90;;;24.80;47.50;;;;;;7372741;19;20081;-77
2022/07/26 10:34:57;;;;;;;2.90;1.08;;;24.90;47.70;;;;;;7372812;19;20062;-77
2022/07/26 10:37:30;;;;;;;4.72;0.70;;;25.20;47.40;;;;;;7373051;19;20423;-78
2022/07/26 10:40:21;;;;;;;4.28;1.10;;;25.20;46.90;;;;;;7374938;19;20102;-78
2022/07/26 10:42:50;;;;;;;1.77;1.07;;;25.30;47.00;;;;;;7374746;19;20036;-78
2022/07/26 10:45:21;;;;;;;5.32;1.15;;;25.50;46.60;;;;;;7393179;19;20015;-77
2022/07/26 10:48:04;;;;;;;;;;;25.50;46.90;;;;;;7372028;19;20018;-77
2022/07/26 10:50:34;;;;;;;2.63;1.02;;;25.80;47.10;;;;;;7372598;19;19923;-77
2022/07/26 10:53:04;;;;;;;2.38;0.80;;;25.80;46.20;;;;;;7371257;19;20018;-77
2022/07/26 10:55:47;;;;;;;4.50;1.20;;;25.60;46.00;;;;;;7372560;19;20029;-77
2022/07/26 10:58:17;;;;;;;4.88;0.90;;;25.40;45.80;;;;;;7374371;19;20015;-77
2022/07/26 11:00:57;;;;;;;4.65;1.05;;;25.20;45.50;;;;;;7370258;19;20042;-78
2022/07/26 11:03:26;;;;;;;2.50;1.00;;;25.20;45.70;;;;;;7392154;19;20018;-78
2022/07/26 11:05:55;;;;;;;2.58;0.93;;;25.40;45.40;;;;;;7371336;19;20019;-77
2022/07/26 11:08:32;;;;;;;2.42;1.08;;;25.50;45.50;;;;;;7370256;19;20018;-77
2022/07/26 11:11:03;;;;;;;4.30;1.15;;;25.60;45.70;;;;;;7371755;19;20018;-77
2022/07/26 11:13:36;;;;;;;2.63;0.90;;;25.70;45.50;;;;;;7373273;19;20042;-77
2022/07/26 11:16:06;;;;;;;2.47;1.08;;;25.80;45.80;;;;;;7370550;19;20030;-77
2022/07/26 11:18:37;;;;;;;3.15;0.75;;;25.60;45.40;;;;;;7390270;19;20448;-78
2022/07/26 11:21:13;;;;;;;1.75;0.80;;;25.80;45.70;;;;;;7371974;19;20046;-78
2022/07/26 11:23:44;;;;;;;2.42;1.10;;;25.90;45.60;;;;;;7372082;19;20014;-78
2022/07/26 11:26:18;;;;;;;4.43;1.17;;;26.10;45.10;;;;;;7372945;19;20449;-77
2022/07/26 11:28:52;;;;;;;6.03;1.55;;;26.10;44.10;;;;;;7372560;19;20380;-79
2022/07/26 11:31:24;;;;;;;3.90;1.00;;;26.30;44.50;;;;;;7371847;19;20010;-78
2022/07/26 11:33:54;;;;;;;5.50;0.90;;;26.30;44.50;;;;;;7369210;19;20045;-78
2022/07/26 11:36:38;;;;;;;3.85;1.00;;;26.50;44.30;;;;;;7389936;19;20093;-77
2022/07/26 11:39:11;;;;;;;4.95;1.00;;;26.60;43.40;;;;;;7371350;19;20015;-78
2022/07/26 11:41:44;;;;;;;2.38;0.80;;;26.70;43.20;;;;;;7371947;19;20014;-77
2022/07/26 11:44:18;;;;;;;3.38;1.00;;;26.60;43.60;;;;;;7372671;19;20056;-78
2022/07/26 11:46:48;;;;;;;4.63;0.90;;;26.50;43.40;;;;;;7371221;19;20453;-77
2022/07/26 11:49:19;;;;;;;3.28;0.60;;;26.30;43.00;;;;;;7370632;19;20007;-78
2022/07/26 11:51:52;;;;;;;1.70;0.70;;;26.40;42.90;;;;;;7371598;19;20074;-78
2022/07/26 11:54:22;;;;;;;1.00;0.65;;;26.30;42.70;;;;;;7392554;19;20287;-78
2022/07/26 11:56:59;;;;;;;2.22;0.80;;;26.40;42.80;;;;;;7371038;19;20021;-78
2022/07/26 11:59:28;;;;;;;2.30;0.88;;;26.50;42.80;;;;;;7369392;19;20025;-78
2022/07/26 12:01:58;;;;;;;2.63;0.90;;;26.30;42.40;;;;;;7368656;19;20478;-77
2022/07/26 12:04:30;;;;;;;1.27;0.77;;;26.30;42.70;;;;;;7368820;19;20007;-77
2022/07/26 12:07:02;;;;;;;2.83;1.05;;;26.30;42.30;;;;;;7368974;19;20632;-78
2022/07/26 12:09:35;;;;;;;4.78;0.90;;;26.20;42.20;;;;;;7391290;19;20034;-77
2022/07/26 12:12:09;;;;;;;2.03;0.70;;;26.30;42.20;;;;;;7371256;19;20597;-77
2022/07/26 12:14:40;;;;;;;3.58;0.90;;;26.10;41.80;;;;;;7370679;19;20078;-77
2022/07/26 12:17:13;;;;;;;2.85;0.88;;;26.10;42.20;;;;;;7371283;19;20075;-77
2022/07/26 12:19:42;;;;;;;1.85;0.82;;;25.90;42.30;;;;;;7369756;19;20139;-78
2022/07/26 12:22:12;;;;;;;1.95;0.75;;;25.70;43.00;;;;;;7370461;19;20014;-77
2022/07/26 12:24:47;;;;;;;3.17;0.83;;;25.90;43.10;;;;;;7393143;19;20472;-78
2022/07/26 12:27:21;;;;;;;2.85;1.02;;;25.90;43.00;;;;;;7369246;19;20085;-78
2022/07/26 12:29:52;;;;;;;7.25;0.73;;;25.80;43.20;;;;;;7367924;19;20074;-77
2022/07/26 12:32:23;;;;;;;5.45;1.02;;;25.80;43.80;;;;;;7370780;19;20015;-78
2022/07/26 12:35:00;;;;;;;4.38;1.55;;;25.80;44.40;;;;;;7371962;19;20015;-78
2022/07/26 12:37:31;;;;;;;4.35;1.13;;;25.70;45.60;;;;;;7371586;19;20011;-78
2022/07/26 12:40:02;;;;;;;6.80;1.35;;;25.80;45.00;;;;;;7368851;19;20581;-77
2022/07/26 12:42:35;;;;;;;12.50;1.67;;;25.90;45.00;;;;;;7389266;19;20568;-78
2022/07/26 12:45:07;;;;;;;3.83;1.30;;;26.20;44.90;;;;;;7369559;19;20021;-77
2022/07/26 12:47:36;;;;;;;2.83;1.10;;;26.30;44.60;;;;;;7368666;19;20023;-77
2022/07/26 12:50:06;;;;;;;5.30;1.00;;;26.30;44.00;;;;;;7369450;19;20082;-78
2022/07/26 12:52:35;;;;;;;2.40;0.90;;;26.50;44.10;;;;;;7367986;19;20032;-77
2022/07/26 12:55:06;;;;;;;4.88;1.30;;;26.60;43.90;;;;;;7370073;19;20018;-78
2022/07/26 12:57:38;;;;;;;3.90;1.17;;;26.70;43.50;;;;;;7390300;19;20023;-79
2022/07/26 13:00:10;;;;;;;2.80;0.90;;;26.80;43.40;;;;;;7369209;19;20017;-78
2022/07/26 13:02:39;;;;;;;2.08;1.00;;;26.70;43.10;;;;;;7367899;19;20473;-78
2022/07/26 13:05:09;;;;;;;2.85;1.10;;;26.70;42.10;;;;;;7367154;19;20086;-78
2022/07/26 13:07:38;;;;;;;3.45;0.93;;;26.70;42.70;;;;;;7369166;19;20460;-78
2022/07/26 13:10:09;;;;;;;1.27;0.77;;;26.60;43.30;;;;;;7368780;19;20017;-77